createdAt,value
2023-05-08T00:00:03.894Z,1282.00
2023-05-08T00:01:03.953Z,1240.00
2023-05-08T00:02:03.994Z,1253.00
2023-05-08T00:03:04.178Z,1251.00
2023-05-08T00:04:04.290Z,1242.00
2023-05-08T00:05:04.274Z,1213.00
2023-05-08T00:06:04.140Z,1204.00
2023-05-08T00:07:04.182Z,1208.00
2023-05-08T00:08:04.218Z,1224.00
2023-05-08T00:09:04.253Z,1223.00
2023-05-08T00:10:04.280Z,1249.00
2023-05-08T00:11:04.321Z,1269.00
2023-05-08T00:12:04.364Z,1291.00
2023-05-08T00:13:04.450Z,1268.00
2023-05-08T00:14:04.463Z,1243.00
2023-05-08T00:15:04.492Z,1234.00
2023-05-08T00:16:04.601Z,1220.00
2023-05-08T00:17:04.666Z,1198.00
2023-05-08T00:18:04.669Z,1210.00
2023-05-08T00:19:04.676Z,1188.00
2023-05-08T00:20:04.706Z,1180.00
2023-05-08T00:21:04.778Z,1182.00
2023-05-08T00:22:04.811Z,1182.00
2023-05-08T00:23:04.843Z,1171.00
2023-05-08T00:24:04.887Z,1147.00
2023-05-08T00:25:04.946Z,1133.00
2023-05-08T00:26:05.014Z,1160.00
2023-05-08T00:27:05.040Z,1175.00
2023-05-08T00:28:05.082Z,1174.00
2023-05-08T00:29:06.526Z,1176.00
2023-05-08T00:30:05.157Z,1189.00
2023-05-08T00:31:05.202Z,1232.00
2023-05-08T00:32:05.279Z,1237.00
2023-05-08T00:33:05.332Z,1207.00
2023-05-08T00:34:05.334Z,1194.00
2023-05-08T00:35:05.412Z,1172.00
2023-05-08T00:36:05.474Z,1168.00
2023-05-08T00:37:05.480Z,1160.00
2023-05-08T00:38:05.529Z,1185.00
2023-05-08T00:39:05.583Z,1183.00
2023-05-08T00:40:05.623Z,1182.00
2023-05-08T00:41:05.656Z,1249.00
2023-05-08T00:42:05.717Z,1207.00
2023-05-08T00:43:05.743Z,1195.00
2023-05-08T00:44:05.793Z,1184.00
2023-05-08T00:45:05.837Z,1215.00
2023-05-08T00:46:05.940Z,1204.00
2023-05-08T00:47:05.939Z,1224.00
2023-05-08T00:48:06.000Z,1247.00
2023-05-08T00:49:06.050Z,1198.00
2023-05-08T00:50:06.096Z,1194.00
2023-05-08T00:51:06.137Z,1202.00
2023-05-08T00:52:06.179Z,1233.00
2023-05-08T00:53:06.236Z,1215.00
2023-05-08T00:54:06.292Z,1234.00
2023-05-08T00:55:06.380Z,1230.00
2023-05-08T00:56:06.373Z,1257.00
2023-05-08T00:57:06.445Z,1226.00
2023-05-08T00:58:06.483Z,1232.00
2023-05-08T00:59:06.539Z,1229.00
2023-05-08T01:00:06.605Z,1264.00
2023-05-08T01:01:06.652Z,1237.00
2023-05-08T01:02:06.682Z,1233.00
2023-05-08T01:03:06.875Z,1238.00
2023-05-08T01:04:06.777Z,1261.00
2023-05-08T01:05:06.830Z,1269.00
2023-05-08T01:06:07.002Z,1274.00
2023-05-08T01:07:06.949Z,1258.00
2023-05-08T01:08:07.002Z,1256.00
2023-05-08T01:09:07.040Z,1265.00
2023-05-08T01:10:07.091Z,1274.00
2023-05-08T01:11:07.146Z,1274.00
2023-05-08T01:12:07.221Z,1312.00
2023-05-08T01:13:07.326Z,1292.00
2023-05-08T01:14:07.320Z,1286.00
2023-05-08T01:15:07.375Z,1296.00
2023-05-08T01:16:07.411Z,1310.00
2023-05-08T01:17:07.467Z,1329.00
2023-05-08T01:18:07.516Z,1339.00
2023-05-08T01:19:07.626Z,1336.00
2023-05-08T01:20:07.625Z,1326.00
2023-05-08T01:21:07.657Z,1311.00
2023-05-08T01:22:07.722Z,1337.00
2023-05-08T01:23:07.752Z,1333.00
2023-05-08T01:24:07.827Z,1335.00
2023-05-08T01:25:07.876Z,1370.00
2023-05-08T01:26:07.917Z,1359.00
2023-05-08T01:27:07.972Z,1335.00
2023-05-08T01:28:08.046Z,1346.00
2023-05-08T01:29:08.090Z,1345.00
2023-05-08T01:30:08.146Z,1370.00
2023-05-08T01:31:08.175Z,1362.00
2023-05-08T01:32:08.240Z,1366.00
2023-05-08T01:33:08.477Z,1315.00
2023-05-08T01:34:08.443Z,1342.00
2023-05-08T01:35:08.393Z,1320.00
2023-05-08T01:36:08.436Z,1321.00
2023-05-08T01:37:08.483Z,1353.00
2023-05-08T01:38:08.543Z,1339.00
2023-05-08T01:39:08.588Z,1330.00
2023-05-08T01:40:08.645Z,1338.00
2023-05-08T01:41:08.692Z,1306.00
2023-05-08T01:42:08.740Z,1316.00
2023-05-08T01:43:08.804Z,1372.00
2023-05-08T01:44:08.845Z,1365.00
2023-05-08T01:45:08.908Z,1356.00
2023-05-08T01:46:08.966Z,1340.00
2023-05-08T01:47:09.128Z,1378.00
2023-05-08T01:48:09.140Z,1373.00
2023-05-08T01:49:09.110Z,1374.00
2023-05-08T01:50:09.187Z,1383.00
2023-05-08T01:51:09.235Z,1376.00
2023-05-08T01:52:09.285Z,1360.00
2023-05-08T01:53:09.328Z,1381.00
2023-05-08T01:54:10.331Z,1354.00
2023-05-08T01:55:09.444Z,1388.00
2023-05-08T01:56:09.500Z,1415.00
2023-05-08T01:57:09.546Z,1400.00
2023-05-08T01:58:09.621Z,1367.00
2023-05-08T01:59:09.661Z,1388.00
2023-05-08T02:00:09.724Z,1403.00
2023-05-08T02:01:09.810Z,1402.00
2023-05-08T02:02:09.886Z,1411.00
2023-05-08T02:03:09.902Z,1406.00
2023-05-08T02:04:09.999Z,1430.00
2023-05-08T02:05:09.983Z,1426.00
2023-05-08T02:06:10.056Z,1430.00
2023-05-08T02:07:10.096Z,1412.00
2023-05-08T02:08:10.157Z,1424.00
2023-05-08T02:09:10.231Z,1458.00
2023-05-08T02:10:10.418Z,1493.00
2023-05-08T02:11:10.326Z,1499.00
2023-05-08T02:12:10.381Z,1543.00
2023-05-08T02:13:10.481Z,1555.00
2023-05-08T02:14:10.496Z,1560.00
2023-05-08T02:15:10.607Z,1592.00
2023-05-08T02:16:10.654Z,1619.00
2023-05-08T02:17:10.692Z,1638.00
2023-05-08T02:18:10.731Z,1636.00
2023-05-08T02:19:10.796Z,1655.00
2023-05-08T02:20:11.112Z,1679.00
2023-05-08T02:21:10.915Z,1656.00
2023-05-08T02:22:10.979Z,1675.00
2023-05-08T02:23:11.049Z,1661.00
2023-05-08T02:24:11.093Z,1687.00
2023-05-08T02:25:11.153Z,1691.00
2023-05-08T02:26:11.215Z,1704.00
2023-05-08T02:27:11.276Z,1708.00
2023-05-08T02:28:11.347Z,1730.00
2023-05-08T02:29:11.404Z,1719.00
2023-05-08T02:30:11.601Z,1735.00
2023-05-08T02:31:11.539Z,1728.00
2023-05-08T02:32:11.664Z,1754.00
2023-05-08T02:33:11.670Z,1733.00
2023-05-08T02:34:11.730Z,1749.00
2023-05-08T02:35:11.776Z,1733.00
2023-05-08T02:36:11.855Z,1767.00
2023-05-08T02:37:11.901Z,1757.00
2023-05-08T02:38:11.979Z,1758.00
2023-05-08T02:39:12.041Z,1783.00
2023-05-08T02:40:12.423Z,1765.00
2023-05-08T02:41:12.164Z,1790.00
2023-05-08T02:42:12.234Z,1781.00
2023-05-08T02:43:12.277Z,1794.00
2023-05-08T02:44:12.342Z,1809.00
2023-05-08T02:45:12.419Z,1812.00
2023-05-08T02:46:12.543Z,1785.00
2023-05-08T02:47:12.522Z,1710.00
2023-05-08T02:48:12.575Z,1694.00
2023-05-08T02:49:12.648Z,1699.00
2023-05-08T02:50:12.816Z,1674.00
2023-05-08T02:51:12.763Z,1667.00
2023-05-08T02:52:12.815Z,1653.00
2023-05-08T02:53:12.870Z,1672.00
2023-05-08T02:54:12.946Z,1681.00
2023-05-08T02:55:13.007Z,1689.00
2023-05-08T02:56:13.070Z,1653.00
2023-05-08T02:57:13.173Z,1637.00
2023-05-08T02:58:13.190Z,1670.00
2023-05-08T02:59:13.278Z,1662.00
2023-05-08T03:00:13.733Z,1631.00
2023-05-08T03:01:13.430Z,1615.00
2023-05-08T03:02:13.532Z,1601.00
2023-05-08T03:03:13.603Z,1591.00
2023-05-08T03:04:13.579Z,1601.00
2023-05-08T03:05:13.636Z,1551.00
2023-05-08T03:06:13.711Z,1529.00
2023-05-08T03:07:13.771Z,1553.00
2023-05-08T03:08:13.844Z,1536.00
2023-05-08T03:09:13.893Z,1488.00
2023-05-08T03:10:14.201Z,1472.00
2023-05-08T03:11:14.018Z,1479.00
2023-05-08T03:12:14.141Z,1481.00
2023-05-08T03:13:14.191Z,1506.00
2023-05-08T03:14:14.217Z,1475.00
2023-05-08T03:15:14.259Z,1458.00
2023-05-08T03:16:14.391Z,1453.00
2023-05-08T03:17:14.393Z,1460.00
2023-05-08T03:18:14.469Z,1449.00
2023-05-08T03:19:14.518Z,1443.00
2023-05-08T03:20:14.785Z,1436.00
2023-05-08T03:21:14.643Z,1451.00
2023-05-08T03:22:14.709Z,1440.00
2023-05-08T03:23:14.782Z,1423.00
2023-05-08T03:24:14.840Z,1417.00
2023-05-08T03:25:14.907Z,1403.00
2023-05-08T03:26:14.955Z,1437.00
2023-05-08T03:27:15.037Z,1431.00
2023-05-08T03:28:15.089Z,1416.00
2023-05-08T03:29:15.145Z,1413.00
2023-05-08T03:30:15.399Z,1431.00
2023-05-08T03:31:15.353Z,1406.00
2023-05-08T03:32:15.327Z,1398.00
2023-05-08T03:33:15.390Z,1400.00
2023-05-08T03:34:15.438Z,1384.00
2023-05-08T03:35:15.488Z,1380.00
2023-05-08T03:36:15.550Z,1383.00
2023-05-08T03:37:15.586Z,1391.00
2023-05-08T03:38:15.606Z,1391.00
2023-05-08T03:39:15.670Z,1423.00
2023-05-08T03:40:15.713Z,1423.00
2023-05-08T03:41:15.740Z,1404.00
2023-05-08T03:42:15.795Z,1391.00
2023-05-08T03:43:15.837Z,1411.00
2023-05-08T03:44:15.870Z,1357.00
2023-05-08T03:45:15.933Z,1394.00
2023-05-08T03:46:16.024Z,1391.00
2023-05-08T03:47:16.045Z,1385.00
2023-05-08T03:48:16.144Z,1396.00
2023-05-08T03:49:16.155Z,1392.00
2023-05-08T03:50:16.234Z,1355.00
2023-05-08T03:51:16.308Z,1376.00
2023-05-08T03:52:16.316Z,1356.00
2023-05-08T03:53:16.390Z,1348.00
2023-05-08T03:54:16.433Z,1370.00
2023-05-08T03:55:16.467Z,1356.00
2023-05-08T03:56:16.524Z,1331.00
2023-05-08T03:57:16.612Z,1377.00
2023-05-08T03:58:16.644Z,1373.00
2023-05-08T03:59:16.678Z,1384.00
2023-05-08T04:00:16.748Z,1390.00
2023-05-08T04:01:16.791Z,1411.00
2023-05-08T04:02:16.867Z,1388.00
2023-05-08T04:03:16.987Z,1364.00
2023-05-08T04:04:17.025Z,1349.00
2023-05-08T04:05:17.022Z,1368.00
2023-05-08T04:06:17.067Z,1375.00
2023-05-08T04:07:17.128Z,1385.00
2023-05-08T04:08:17.212Z,1382.00
2023-05-08T04:09:17.218Z,1370.00
2023-05-08T04:10:17.269Z,1374.00
2023-05-08T04:11:17.341Z,1391.00
2023-05-08T04:12:17.354Z,1402.00
2023-05-08T04:13:17.399Z,1368.00
2023-05-08T04:14:17.441Z,1384.00
2023-05-08T04:15:17.497Z,1348.00
2023-05-08T04:16:17.590Z,1338.00
2023-05-08T04:17:17.583Z,1323.00
2023-05-08T04:18:17.632Z,1310.00
2023-05-08T04:19:17.700Z,1322.00
2023-05-08T04:20:17.745Z,1328.00
2023-05-08T04:21:17.833Z,1307.00
2023-05-08T04:22:17.879Z,1312.00
2023-05-08T04:23:17.935Z,1319.00
2023-05-08T04:24:17.978Z,1318.00
2023-05-08T04:25:18.056Z,1324.00
2023-05-08T04:26:18.120Z,1327.00
2023-05-08T04:27:18.151Z,1331.00
2023-05-08T04:28:18.220Z,1322.00
2023-05-08T04:29:18.283Z,1308.00
2023-05-08T04:30:18.294Z,1322.00
2023-05-08T04:31:18.414Z,1329.00
2023-05-08T04:32:18.455Z,1316.00
2023-05-08T04:33:18.541Z,1312.00
2023-05-08T04:34:18.513Z,1304.00
2023-05-08T04:35:18.552Z,1312.00
2023-05-08T04:36:18.584Z,1310.00
2023-05-08T04:37:18.608Z,1310.00
2023-05-08T04:38:18.648Z,1335.00
2023-05-08T04:39:18.687Z,1296.00
2023-05-08T04:40:18.733Z,1271.00
2023-05-08T04:41:18.818Z,1280.00
2023-05-08T04:42:18.824Z,1290.00
2023-05-08T04:43:18.855Z,1282.00
2023-05-08T04:44:18.930Z,1258.00
2023-05-08T04:45:19.002Z,1309.00
2023-05-08T04:46:19.128Z,1313.00
2023-05-08T04:47:19.119Z,1327.00
2023-05-08T04:48:19.317Z,1310.00
2023-05-08T04:49:19.237Z,1328.00
2023-05-08T04:50:19.280Z,1337.00
2023-05-08T04:51:19.347Z,1304.00
2023-05-08T04:52:19.378Z,1279.00
2023-05-08T04:53:19.430Z,1301.00
2023-05-08T04:54:19.457Z,1304.00
2023-05-08T04:55:19.489Z,1316.00
2023-05-08T04:56:19.522Z,1308.00
2023-05-08T04:57:19.562Z,1282.00
2023-05-08T04:58:19.594Z,1311.00
2023-05-08T04:59:19.586Z,1300.00
2023-05-08T05:00:19.612Z,1294.00
2023-05-08T05:01:19.697Z,1295.00
2023-05-08T05:02:19.715Z,1320.00
2023-05-08T05:03:19.754Z,1298.00
2023-05-08T05:04:19.762Z,1289.00
2023-05-08T05:05:19.806Z,1319.00
2023-05-08T05:06:19.847Z,1340.00
2023-05-08T05:07:19.874Z,1333.00
2023-05-08T05:08:19.916Z,1330.00
2023-05-08T05:09:19.934Z,1292.00
2023-05-08T05:10:19.974Z,1314.00
2023-05-08T05:11:20.010Z,1290.00
2023-05-08T05:12:20.059Z,1325.00
2023-05-08T05:13:20.261Z,1336.00
2023-05-08T05:14:20.167Z,1326.00
2023-05-08T05:15:20.232Z,1344.00
2023-05-08T05:16:20.291Z,1385.00
2023-05-08T05:17:20.290Z,1305.00
2023-05-08T05:18:20.308Z,1319.00
2023-05-08T05:19:20.325Z,1300.00
2023-05-08T05:20:20.368Z,1300.00
2023-05-08T05:21:20.391Z,1307.00
2023-05-08T05:22:20.426Z,1293.00
2023-05-08T05:23:20.472Z,1310.00
2023-05-08T05:24:20.540Z,1223.00
2023-05-08T05:25:20.528Z,1157.00
2023-05-08T05:26:20.523Z,1147.00
2023-05-08T05:27:21.357Z,1191.00
2023-05-08T05:28:20.534Z,1516.00
2023-05-08T05:29:20.544Z,1646.00
2023-05-08T05:30:20.582Z,1616.00
2023-05-08T05:31:20.688Z,1569.00
2023-05-08T05:32:20.992Z,1524.00
2023-05-08T05:33:20.784Z,1484.00
2023-05-08T05:34:20.808Z,1419.00
2023-05-08T05:35:20.838Z,1405.00
2023-05-08T05:36:20.885Z,1419.00
2023-05-08T05:37:20.932Z,1462.00
2023-05-08T05:38:20.899Z,1487.00
2023-05-08T05:39:20.917Z,1533.00
2023-05-08T05:40:20.907Z,1577.00
2023-05-08T05:41:20.912Z,1623.00
2023-05-08T05:42:20.917Z,1653.00
2023-05-08T05:43:20.934Z,1692.00
2023-05-08T05:44:20.949Z,1739.00
2023-05-08T05:45:20.964Z,1866.00
2023-05-08T05:46:20.961Z,1870.00
2023-05-08T05:47:21.072Z,1915.00
2023-05-08T05:48:20.986Z,1886.00
2023-05-08T05:49:21.011Z,1864.00
2023-05-08T05:50:21.074Z,1878.00
2023-05-08T05:51:21.137Z,1921.00
2023-05-08T05:52:21.247Z,1979.00
2023-05-08T05:53:21.279Z,2030.00
2023-05-08T05:54:21.325Z,2076.00
2023-05-08T05:55:21.350Z,2136.00
2023-05-08T05:56:21.397Z,2177.00
2023-05-08T05:57:21.436Z,2218.00
2023-05-08T05:58:21.468Z,2240.00
2023-05-08T05:59:21.507Z,2246.00
2023-05-08T06:00:21.526Z,2225.00
2023-05-08T06:01:21.551Z,2346.00
2023-05-08T06:02:21.604Z,2374.00
2023-05-08T06:03:21.619Z,2391.00
2023-05-08T06:04:21.677Z,2385.00
2023-05-08T06:05:21.585Z,2367.00
2023-05-08T06:06:21.593Z,2384.00
2023-05-08T06:07:21.576Z,2403.00
2023-05-08T06:08:21.574Z,2392.00
2023-05-08T06:09:21.572Z,2363.00
2023-05-08T06:10:21.580Z,2403.00
2023-05-08T06:11:21.562Z,2443.00
2023-05-08T06:12:21.598Z,2481.00
2023-05-08T06:13:21.666Z,2443.00
2023-05-08T06:14:21.560Z,2485.00
2023-05-08T06:15:21.568Z,2485.00
2023-05-08T06:16:21.591Z,2528.00
2023-05-08T06:17:21.621Z,2570.00
2023-05-08T06:18:21.604Z,2532.00
2023-05-08T06:19:21.610Z,2551.00
2023-05-08T06:20:21.638Z,2515.00
2023-05-08T06:21:21.674Z,2523.00
2023-05-08T06:22:21.704Z,2535.00
2023-05-08T06:23:21.700Z,2642.00
2023-05-08T06:24:21.810Z,2741.00
2023-05-08T06:25:21.815Z,2736.00
2023-05-08T06:26:23.395Z,2689.00
2023-05-08T06:27:21.925Z,2760.00
2023-05-08T06:28:21.968Z,2820.00
2023-05-08T06:29:22.054Z,2850.00
2023-05-08T06:30:22.103Z,2862.00
2023-05-08T06:31:22.188Z,2743.00
2023-05-08T06:32:22.379Z,2866.00
2023-05-08T06:33:23.592Z,2742.00
2023-05-08T06:34:22.287Z,2724.00
2023-05-08T06:35:22.434Z,2518.00
2023-05-08T06:36:22.388Z,2454.00
2023-05-08T06:37:22.420Z,2429.00
2023-05-08T06:38:22.458Z,2391.00
2023-05-08T06:39:22.480Z,2393.00
2023-05-08T06:40:22.509Z,2345.00
2023-05-08T06:41:22.488Z,2356.00
2023-05-08T06:42:22.492Z,2341.00
2023-05-08T06:43:22.503Z,2365.00
2023-05-08T06:44:22.489Z,2326.00
2023-05-08T06:45:22.541Z,2413.00
2023-05-08T06:46:22.569Z,2453.00
2023-05-08T06:47:22.586Z,2493.00
2023-05-08T06:48:22.640Z,2271.00
2023-05-08T06:49:22.649Z,2129.00
2023-05-08T06:50:22.664Z,2055.00
2023-05-08T06:51:22.688Z,2086.00
2023-05-08T06:52:22.691Z,2070.00
2023-05-08T06:53:22.749Z,1983.00
2023-05-08T06:54:22.766Z,1916.00
2023-05-08T06:55:22.954Z,1889.00
2023-05-08T06:56:22.949Z,1834.00
2023-05-08T06:57:22.931Z,1732.00
2023-05-08T06:58:22.921Z,1687.00
2023-05-08T06:59:22.942Z,1732.00
2023-05-08T07:00:22.969Z,1706.00
2023-05-08T07:01:23.103Z,1697.00
2023-05-08T07:02:23.062Z,1688.00
2023-05-08T07:03:23.088Z,1727.00
2023-05-08T07:04:23.215Z,1746.00
2023-05-08T07:05:23.244Z,1712.00
2023-05-08T07:06:23.249Z,1728.00
2023-05-08T07:07:23.275Z,1715.00
2023-05-08T07:08:23.269Z,1612.00
2023-05-08T07:09:23.277Z,1636.00
2023-05-08T07:10:23.252Z,1648.00
2023-05-08T07:11:23.280Z,1678.00
2023-05-08T07:12:23.384Z,1762.00
2023-05-08T07:13:23.359Z,1785.00
2023-05-08T07:14:23.328Z,1705.00
2023-05-08T07:15:26.522Z,1682.00
2023-05-08T07:16:23.348Z,1626.00
2023-05-08T07:17:23.386Z,1662.00
2023-05-08T07:18:23.345Z,1696.00
2023-05-08T07:19:23.294Z,1723.00
2023-05-08T07:20:23.304Z,1750.00
2023-05-08T07:21:23.283Z,1810.00
2023-05-08T07:22:23.298Z,1781.00
2023-05-08T07:23:23.289Z,1761.00
2023-05-08T07:24:23.278Z,1816.00
2023-05-08T07:25:23.273Z,1734.00
2023-05-08T07:26:23.279Z,1739.00
2023-05-08T07:27:23.270Z,1877.00
2023-05-08T07:28:23.240Z,2084.00
2023-05-08T07:29:23.252Z,2509.00
2023-05-08T07:30:23.233Z,2625.00
2023-05-08T07:31:23.263Z,2791.00
2023-05-08T07:32:23.261Z,2944.00
2023-05-08T07:33:23.203Z,3013.00
2023-05-08T07:34:23.208Z,3019.00
2023-05-08T07:35:23.201Z,3066.00
2023-05-08T07:36:23.183Z,3038.00
2023-05-08T07:37:23.187Z,3086.00
2023-05-08T07:38:23.163Z,3081.00
2023-05-08T07:39:23.172Z,3137.00
2023-05-08T07:40:23.577Z,3235.00
2023-05-08T07:41:23.192Z,3169.00
2023-05-08T07:42:23.163Z,3194.00
2023-05-08T07:43:23.471Z,3101.00
2023-05-08T07:44:23.122Z,2882.00
2023-05-08T07:45:23.181Z,2639.00
2023-05-08T07:46:23.224Z,2517.00
2023-05-08T07:47:23.121Z,2528.00
2023-05-08T07:48:23.479Z,2443.00
2023-05-08T07:49:23.109Z,2527.00
2023-05-08T07:50:23.201Z,2611.00
2023-05-08T07:51:23.079Z,2706.00
2023-05-08T07:52:23.085Z,2773.00
2023-05-08T07:53:23.109Z,2882.00
2023-05-08T07:54:23.071Z,3068.00
2023-05-08T07:55:23.081Z,3179.00
2023-05-08T07:56:23.121Z,3217.00
2023-05-08T07:57:23.101Z,3215.00
2023-05-08T07:58:24.027Z,3185.00
2023-05-08T07:59:23.098Z,3190.00
2023-05-08T08:00:23.162Z,3176.00
2023-05-08T08:01:23.108Z,3242.00
2023-05-08T08:02:23.204Z,3203.00
2023-05-08T08:03:23.200Z,3196.00
2023-05-08T08:04:23.344Z,3123.00
2023-05-08T08:05:23.493Z,3155.00
2023-05-08T08:06:23.356Z,3155.00
2023-05-08T08:07:23.406Z,3239.00
2023-05-08T08:08:23.486Z,3234.00
2023-05-08T08:09:23.500Z,3120.00
2023-05-08T08:10:23.573Z,3282.00
2023-05-08T08:11:23.596Z,3356.00
2023-05-08T08:12:23.698Z,3312.00
2023-05-08T08:13:24.170Z,3288.00
2023-05-08T08:14:23.731Z,3324.00
2023-05-08T08:15:23.761Z,3162.00
2023-05-08T08:16:23.877Z,3329.00
2023-05-08T08:17:25.025Z,3349.00
2023-05-08T08:18:23.998Z,3207.00
2023-05-08T08:19:23.888Z,3065.00
2023-05-08T08:20:23.909Z,3094.00
2023-05-08T08:21:23.916Z,3118.00
2023-05-08T08:22:24.025Z,3122.00
2023-05-08T08:23:23.985Z,3175.00
2023-05-08T08:24:24.008Z,3197.00
2023-05-08T08:25:24.524Z,3213.00
2023-05-08T08:26:24.054Z,3252.00
2023-05-08T08:27:24.079Z,3321.00
2023-05-08T08:28:24.054Z,3345.00
2023-05-08T08:29:24.135Z,3347.00
2023-05-08T08:30:24.181Z,3233.00
2023-05-08T08:31:24.164Z,3225.00
2023-05-08T08:32:24.241Z,3133.00
2023-05-08T08:33:24.205Z,2785.00
2023-05-08T08:34:24.222Z,2343.00
2023-05-08T08:35:24.244Z,2111.00
2023-05-08T08:36:24.262Z,1966.00
2023-05-08T08:37:24.293Z,2081.00
2023-05-08T08:38:24.501Z,2215.00
2023-05-08T08:39:24.474Z,2312.00
2023-05-08T08:40:24.490Z,2403.00
2023-05-08T08:41:24.546Z,2404.00
2023-05-08T08:42:24.590Z,2564.00
2023-05-08T08:43:24.981Z,2583.00
2023-05-08T08:44:24.627Z,2677.00
2023-05-08T08:45:24.660Z,2707.00
2023-05-08T08:46:24.715Z,3560.00
2023-05-08T08:47:24.689Z,3326.00
2023-05-08T08:48:24.811Z,3061.00
2023-05-08T08:49:24.791Z,2957.00
2023-05-08T08:50:24.829Z,2897.00
2023-05-08T08:51:24.893Z,3130.00
2023-05-08T08:52:24.913Z,3260.00
2023-05-08T08:53:24.955Z,3731.00
2023-05-08T08:54:24.990Z,3301.00
2023-05-08T08:55:25.047Z,3253.00
2023-05-08T08:56:25.037Z,3139.00
2023-05-08T08:57:25.056Z,2978.00
2023-05-08T08:58:25.088Z,2724.00
2023-05-08T08:59:25.157Z,2687.00
2023-05-08T09:00:25.094Z,2890.00
2023-05-08T09:01:25.171Z,2993.00
2023-05-08T09:02:25.188Z,3003.00
2023-05-08T09:03:25.210Z,2985.00
2023-05-08T09:04:25.299Z,2882.00
2023-05-08T09:05:25.125Z,2912.00
2023-05-08T09:06:25.141Z,2902.00
2023-05-08T09:07:25.126Z,2990.00
2023-05-08T09:08:25.124Z,2885.00
2023-05-08T09:09:25.135Z,2937.00
2023-05-08T09:10:25.128Z,2971.00
2023-05-08T09:11:25.140Z,2920.00
2023-05-08T09:12:25.179Z,2959.00
2023-05-08T09:13:25.210Z,2991.00
2023-05-08T09:14:25.151Z,3002.00
2023-05-08T09:15:25.160Z,2926.00
2023-05-08T09:16:25.232Z,2964.00
2023-05-08T09:17:25.177Z,2823.00
2023-05-08T09:18:25.155Z,2835.00
2023-05-08T09:19:27.186Z,2944.00
2023-05-08T09:20:25.208Z,3007.00
2023-05-08T09:21:25.127Z,3027.00
2023-05-08T09:22:25.111Z,3046.00
2023-05-08T09:23:25.129Z,3048.00
2023-05-08T09:24:25.093Z,2898.00
2023-05-08T09:25:25.093Z,2850.00
2023-05-08T09:26:25.092Z,2746.00
2023-05-08T09:27:25.088Z,2681.00
2023-05-08T09:28:25.548Z,2732.00
2023-05-08T09:29:25.069Z,2660.00
2023-05-08T09:30:25.075Z,2611.00
2023-05-08T09:31:25.114Z,2693.00
2023-05-08T09:32:25.053Z,2756.00
2023-05-08T09:33:25.536Z,2786.00
2023-05-08T09:34:25.017Z,2732.00
2023-05-08T09:35:25.032Z,2811.00
2023-05-08T09:36:25.122Z,2927.00
2023-05-08T09:37:25.022Z,3000.00
2023-05-08T09:38:25.017Z,3079.00
2023-05-08T09:39:25.025Z,3315.00
2023-05-08T09:40:25.001Z,3345.00
2023-05-08T09:41:24.989Z,3205.00
2023-05-08T09:42:24.970Z,3179.00
2023-05-08T09:43:24.967Z,3168.00
2023-05-08T09:44:24.974Z,3144.00
2023-05-08T09:45:24.962Z,3128.00
2023-05-08T09:46:25.016Z,3113.00
2023-05-08T09:47:25.045Z,2967.00
2023-05-08T09:48:24.935Z,3304.00
2023-05-08T09:49:24.924Z,3597.00
2023-05-08T09:50:24.915Z,3326.00
2023-05-08T09:51:24.951Z,3298.00
2023-05-08T09:52:25.022Z,3222.00
2023-05-08T09:53:24.927Z,3135.00
2023-05-08T09:54:24.891Z,3032.00
2023-05-08T09:55:24.900Z,3097.00
2023-05-08T09:56:24.878Z,3039.00
2023-05-08T09:57:24.886Z,2999.00
2023-05-08T09:58:24.864Z,2960.00
2023-05-08T09:59:24.898Z,2963.00
2023-05-08T10:00:24.890Z,2947.00
2023-05-08T10:01:24.892Z,2953.00
2023-05-08T10:02:24.875Z,2955.00
2023-05-08T10:03:25.112Z,2595.00
2023-05-08T10:04:24.838Z,2189.00
2023-05-08T10:05:24.959Z,1906.00
2023-05-08T10:06:25.021Z,1674.00
2023-05-08T10:07:24.822Z,1588.00
2023-05-08T10:08:24.886Z,1539.00
2023-05-08T10:09:26.158Z,1447.00
2023-05-08T10:10:24.978Z,1409.00
2023-05-08T10:11:25.045Z,1380.00
2023-05-08T10:12:25.038Z,1449.00
2023-05-08T10:13:25.143Z,1448.00
2023-05-08T10:14:25.067Z,1298.00
2023-05-08T10:15:25.138Z,1263.00
2023-05-08T10:16:25.202Z,1299.00
2023-05-08T10:17:25.269Z,1386.00
2023-05-08T10:18:25.282Z,1507.00
2023-05-08T10:19:25.347Z,1549.00
2023-05-08T10:20:25.378Z,1594.00
2023-05-08T10:21:25.542Z,1614.00
2023-05-08T10:22:25.451Z,1727.00
2023-05-08T10:23:25.471Z,1708.00
2023-05-08T10:24:25.568Z,1770.00
2023-05-08T10:25:25.456Z,1887.00
2023-05-08T10:26:25.509Z,1982.00
2023-05-08T10:27:25.544Z,2044.00
2023-05-08T10:28:26.030Z,2091.00
2023-05-08T10:29:25.642Z,2201.00
2023-05-08T10:30:25.701Z,2286.00
2023-05-08T10:31:25.737Z,2184.00
2023-05-08T10:32:25.787Z,2155.00
2023-05-08T10:33:26.055Z,2206.00
2023-05-08T10:34:25.780Z,2255.00
2023-05-08T10:35:25.773Z,2283.00
2023-05-08T10:36:25.792Z,2347.00
2023-05-08T10:37:25.778Z,2345.00
2023-05-08T10:38:25.774Z,2370.00
2023-05-08T10:39:25.814Z,2249.00
2023-05-08T10:40:25.886Z,2219.00
2023-05-08T10:41:25.792Z,2212.00
2023-05-08T10:42:25.816Z,2289.00
2023-05-08T10:43:25.860Z,2343.00
2023-05-08T10:44:25.819Z,2415.00
2023-05-08T10:45:25.823Z,2481.00
2023-05-08T10:46:25.899Z,2511.00
2023-05-08T10:47:25.960Z,2522.00
2023-05-08T10:48:26.012Z,2485.00
2023-05-08T10:49:26.105Z,2261.00
2023-05-08T10:50:26.137Z,2263.00
2023-05-08T10:51:26.189Z,2381.00
2023-05-08T10:52:26.245Z,2422.00
2023-05-08T10:53:26.311Z,2366.00
2023-05-08T10:54:27.926Z,2419.00
2023-05-08T10:55:26.430Z,2338.00
2023-05-08T10:56:26.482Z,2335.00
2023-05-08T10:57:26.519Z,2263.00
2023-05-08T10:58:26.557Z,2207.00
2023-05-08T10:59:26.591Z,2223.00
2023-05-08T11:00:26.649Z,2344.00
2023-05-08T11:01:26.718Z,2397.00
2023-05-08T11:02:26.819Z,2381.00
2023-05-08T11:03:32.172Z,2372.00
2023-05-08T11:04:27.775Z,2375.00
2023-05-08T11:05:26.690Z,2379.00
2023-05-08T11:06:26.704Z,2396.00
2023-05-08T11:07:26.692Z,2411.00
2023-05-08T11:08:26.690Z,2307.00
2023-05-08T11:09:26.664Z,2262.00
2023-05-08T11:10:26.673Z,2258.00
2023-05-08T11:11:26.652Z,2305.00
2023-05-08T11:12:26.664Z,2360.00
2023-05-08T11:13:26.734Z,2095.00
2023-05-08T11:14:26.646Z,2009.00
2023-05-08T11:15:26.645Z,1699.00
2023-05-08T11:16:26.648Z,1657.00
2023-05-08T11:17:26.656Z,1524.00
2023-05-08T11:18:32.444Z,1650.00
2023-05-08T11:19:27.617Z,1652.00
2023-05-08T11:20:27.562Z,1649.00
2023-05-08T11:21:27.072Z,1698.00
2023-05-08T11:22:26.605Z,1607.00
2023-05-08T11:23:26.635Z,1679.00
2023-05-08T11:24:26.677Z,1851.00
2023-05-08T11:25:26.727Z,1861.00
2023-05-08T11:26:26.775Z,1835.00
2023-05-08T11:27:27.533Z,1843.00
2023-05-08T11:28:26.863Z,1713.00
2023-05-08T11:29:26.911Z,1693.00
2023-05-08T11:30:27.039Z,1767.00
2023-05-08T11:31:27.032Z,1821.00
2023-05-08T11:32:27.100Z,1802.00
2023-05-08T11:33:27.113Z,1811.00
2023-05-08T11:34:27.188Z,1852.00
2023-05-08T11:35:27.197Z,1877.00
2023-05-08T11:36:27.266Z,1931.00
2023-05-08T11:37:27.311Z,1921.00
2023-05-08T11:38:27.344Z,1739.00
2023-05-08T11:39:27.398Z,1646.00
2023-05-08T11:40:27.466Z,1503.00
2023-05-08T11:41:27.543Z,1687.00
2023-05-08T11:42:27.593Z,1722.00
2023-05-08T11:43:27.660Z,1691.00
2023-05-08T11:44:27.711Z,1788.00
2023-05-08T11:45:27.758Z,1895.00
2023-05-08T11:46:27.836Z,1949.00
2023-05-08T11:47:27.911Z,1982.00
2023-05-08T11:48:27.902Z,1995.00
2023-05-08T11:49:29.864Z,1985.00
2023-05-08T11:50:27.979Z,2004.00
2023-05-08T11:51:28.030Z,1848.00
2023-05-08T11:52:28.074Z,1888.00
2023-05-08T11:53:28.087Z,2000.00
2023-05-08T11:54:28.114Z,2016.00
2023-05-08T11:55:28.143Z,2050.00
2023-05-08T11:56:28.184Z,2067.00
2023-05-08T11:57:28.226Z,2108.00
2023-05-08T11:58:28.256Z,2142.00
2023-05-08T11:59:28.324Z,2161.00
2023-05-08T12:00:28.483Z,2164.00
2023-05-08T12:01:28.436Z,2177.00
2023-05-08T12:02:28.580Z,2172.00
2023-05-08T12:03:28.757Z,2178.00
2023-05-08T12:04:28.766Z,2179.00
2023-05-08T12:05:28.664Z,2177.00